Time;durP1;ratioP1;P1;durP2;ratioP2;P2;SDS_P1;SDS_P2;PMS_P1;PMS_P2;Temp;Humidity;BMP_temperature;BMP_pressure;BME280_temperature;BME280_humidity;BME280_pressure;Samples;Min_cycle;Max_cycle;Signal;HPM_P1;HPM_P2
2022/09/06 00:00:05;;;;;;;15.30;14.00;;;19.30;1.00;;;;;;4987419;28;20784;-53
2022/09/06 00:02:32;;;;;;;13.77;12.63;;;19.40;1.00;;;;;;4985684;28;20195;-55
2022/09/06 00:04:58;;;;;;;14.10;12.80;;;19.40;1.00;;;;;;4985921;28;20473;-55
2022/09/06 00:07:23;;;;;;;14.40;13.10;;;19.50;1.00;;;;;;4985431;28;20927;-55
2022/09/06 00:09:49;;;;;;;13.50;12.27;;;19.40;1.00;;;;;;4986951;28;20452;-55
2022/09/06 00:12:14;;;;;;;13.07;11.97;;;19.30;1.00;;;;;;4999048;28;20190;-52
2022/09/06 00:14:40;;;;;;;14.03;12.83;;;19.30;1.00;;;;;;4993057;28;20205;-55
2022/09/06 00:17:06;;;;;;;11.50;10.40;;;19.30;1.00;;;;;;4983870;28;20588;-55
2022/09/06 00:19:31;;;;;;;12.47;11.47;;;19.30;1.00;;;;;;4988429;28;20183;-55
2022/09/06 00:21:57;;;;;;;13.00;11.90;;;19.20;1.00;;;;;;4986738;28;20194;-54
2022/09/06 00:24:22;;;;;;;12.50;10.83;;;19.20;1.00;;;;;;4985673;28;20210;-55
2022/09/06 00:26:48;;;;;;;12.70;11.60;;;19.10;1.00;;;;;;4990664;28;20206;-54
2022/09/06 00:29:13;;;;;;;11.63;10.70;;;19.10;1.00;;;;;;4987976;28;20210;-53
2022/09/06 00:31:39;;;;;;;12.30;11.13;;;19.10;1.00;;;;;;4983092;28;20186;-54
2022/09/06 00:34:05;;;;;;;11.60;10.70;;;19.10;1.00;;;;;;4964871;28;20617;-55
2022/09/06 00:36:30;;;;;;;12.17;11.20;;;19.20;1.00;;;;;;4981174;28;20195;-54
2022/09/06 00:38:56;;;;;;;13.33;11.93;;;19.10;1.00;;;;;;4983415;28;20268;-54
2022/09/06 00:41:21;;;;;;;12.77;11.57;;;19.10;1.00;;;;;;4986402;28;20250;-53
2022/09/06 00:43:47;;;;;;;14.00;11.03;;;19.10;1.00;;;;;;4977713;28;20233;-56
2022/09/06 00:46:22;;;;;;;13.40;12.13;;;19.00;1.00;;;;;;4989013;28;20218;-55
2022/09/06 00:48:51;;;;;;;13.87;12.57;;;19.00;1.00;;;;;;4987453;28;20190;-54
2022/09/06 00:51:19;;;;;;;12.67;11.67;;;19.00;1.00;;;;;;4989854;28;20459;-52
2022/09/06 00:53:45;;;;;;;13.67;12.50;;;19.10;1.00;;;;;;4988111;28;20461;-54
2022/09/06 00:56:11;;;;;;;13.60;12.40;;;19.00;1.00;;;;;;4990608;28;20471;-55
2022/09/06 00:58:37;;;;;;;13.53;12.33;;;19.00;1.00;;;;;;4988359;28;20461;-52
2022/09/06 01:01:06;;;;;;;12.93;11.90;;;18.90;1.00;;;;;;4986760;28;20560;-55
2022/09/06 01:03:32;;;;;;;13.07;11.87;;;18.90;1.00;;;;;;4988425;28;20206;-55
2022/09/06 01:06:16;;;;;;;13.27;11.97;;;18.80;1.00;;;;;;4988646;28;20444;-54
2022/09/06 01:09:06;;;;;;;13.87;12.67;;;18.90;1.00;;;;;;4985096;28;20416;-55
2022/09/06 01:11:46;;;;;;;13.53;12.33;;;19.00;1.00;;;;;;4988254;28;20433;-54
2022/09/06 01:14:33;;;;;;;13.60;12.30;;;19.00;1.00;;;;;;4988964;28;20420;-54
2022/09/06 01:17:17;;;;;;;13.30;11.80;;;19.00;1.00;;;;;;4982687;28;20958;-54
2022/09/06 01:20:13;;;;;;;13.50;12.30;;;19.00;1.00;;;;;;4986751;28;20456;-53
2022/09/06 01:22:51;;;;;;;13.90;12.43;;;18.90;1.00;;;;;;4987702;28;20435;-55
2022/09/06 01:25:35;;;;;;;14.90;13.57;;;18.90;1.00;;;;;;4989101;28;20456;-55
2022/09/06 01:28:15;;;;;;;14.40;13.00;;;18.90;1.00;;;;;;4993817;28;20440;-56
2022/09/06 01:30:50;;;;;;;16.33;14.80;;;18.80;1.00;;;;;;4986646;28;20419;-53
2022/09/06 01:33:20;;;;;;;13.93;12.63;;;18.90;1.00;;;;;;4987484;28;20449;-55
2022/09/06 01:36:07;;;;;;;13.83;12.63;;;18.80;1.00;;;;;;4987622;28;20592;-54
2022/09/06 01:38:34;;;;;;;15.60;14.00;;;18.80;1.00;;;;;;4984784;28;20436;-56
2022/09/06 01:40:59;;;;;;;16.17;14.57;;;18.80;1.00;;;;;;4991375;28;20771;-54
2022/09/06 01:43:35;;;;;;;13.53;12.33;;;18.90;1.00;;;;;;4995695;28;20479;-54
2022/09/06 01:46:12;;;;;;;14.03;12.80;;;18.80;1.00;;;;;;4991364;28;20197;-56
2022/09/06 01:48:44;;;;;;;15.07;13.57;;;18.80;1.00;;;;;;4990888;28;20604;-55
2022/09/06 01:51:21;;;;;;;14.07;12.77;;;18.80;1.00;;;;;;4992318;28;20532;-56
2022/09/06 01:54:13;;;;;;;14.60;13.40;;;18.70;1.00;;;;;;4996260;28;20424;-54
2022/09/06 01:56:56;;;;;;;14.70;13.40;;;18.60;1.00;;;;;;4992851;28;20519;-55
2022/09/06 01:59:24;;;;;;;15.07;13.73;;;18.70;1.00;;;;;;4977135;28;20462;-54
2022/09/06 02:02:04;;;;;;;14.70;13.40;;;18.70;1.00;;;;;;4993263;28;20466;-55
2022/09/06 02:04:49;;;;;;;14.70;13.40;;;18.80;1.00;;;;;;4998424;28;20572;-55
2022/09/06 02:07:23;;;;;;;14.50;13.30;;;18.80;1.00;;;;;;4990462;28;20449;-55
2022/09/06 02:09:54;;;;;;;13.93;12.73;;;18.80;1.00;;;;;;4993347;28;20496;-53
2022/09/06 02:12:21;;;;;;;13.47;12.37;;;18.90;1.00;;;;;;4987793;28;20434;-53
2022/09/06 02:15:19;;;;;;;13.20;12.10;;;18.80;1.00;;;;;;4993666;28;20453;-54
2022/09/06 02:17:56;;;;;;;14.63;13.40;;;18.70;1.00;;;;;;4992575;28;20542;-54
2022/09/06 02:20:28;;;;;;;14.43;13.17;;;18.70;1.00;;;;;;4991027;28;20439;-53
2022/09/06 02:22:55;;;;;;;13.53;12.23;;;18.80;1.00;;;;;;4990619;28;20955;-55
2022/09/06 02:25:26;;;;;;;13.57;12.20;;;18.70;1.00;;;;;;4986186;28;20454;-53
2022/09/06 02:27:52;;;;;;;13.23;12.13;;;18.60;1.00;;;;;;4989172;28;20459;-55
2022/09/06 02:30:18;;;;;;;14.03;12.80;;;18.70;1.00;;;;;;4989836;28;20436;-54
2022/09/06 02:32:54;;;;;;;13.57;12.43;;;18.60;1.00;;;;;;4988098;28;20424;-52
2022/09/06 02:35:20;;;;;;;14.50;13.30;;;18.60;1.00;;;;;;4974914;28;20191;-56
2022/09/06 02:37:45;;;;;;;14.43;13.23;;;18.50;1.00;;;;;;4989572;28;21004;-54
2022/09/06 02:40:11;;;;;;;14.83;13.40;;;18.50;1.00;;;;;;4988846;28;20197;-53
2022/09/06 02:42:38;;;;;;;14.63;13.43;;;18.50;1.00;;;;;;4987463;28;20231;-53
2022/09/06 02:45:04;;;;;;;14.40;13.17;;;18.50;1.00;;;;;;4986949;28;20701;-55
2022/09/06 02:47:29;;;;;;;14.83;13.47;;;18.40;1.00;;;;;;4999392;28;20437;-55
2022/09/06 02:49:55;;;;;;;16.23;13.80;;;18.50;1.00;;;;;;4990125;28;20739;-54
2022/09/06 02:52:21;;;;;;;15.27;13.10;;;18.50;1.00;;;;;;4993704;28;20188;-54
2022/09/06 02:54:46;;;;;;;13.57;12.37;;;18.60;1.00;;;;;;4989343;28;20193;-55
2022/09/06 02:57:12;;;;;;;14.23;12.90;;;18.60;1.00;;;;;;4990827;28;20242;-54
2022/09/06 02:59:37;;;;;;;14.20;12.90;;;18.60;1.00;;;;;;4989341;28;20194;-54
2022/09/06 03:02:03;;;;;;;14.83;13.27;;;18.50;1.00;;;;;;4989088;28;20624;-54
2022/09/06 03:04:28;;;;;;;13.90;12.70;;;18.40;1.00;;;;;;4985419;28;20766;-55
2022/09/06 03:06:55;;;;;;;15.20;13.83;;;18.50;1.00;;;;;;4991703;28;20275;-55
2022/09/06 03:09:20;;;;;;;14.33;13.20;;;18.50;1.00;;;;;;4991338;28;20182;-53
2022/09/06 03:11:46;;;;;;;14.67;13.33;;;18.60;1.00;;;;;;4990316;28;20527;-55
2022/09/06 03:14:12;;;;;;;14.47;13.27;;;18.60;1.00;;;;;;4985997;28;20205;-54
2022/09/06 03:16:37;;;;;;;14.27;12.77;;;18.60;1.00;;;;;;4986622;28;20247;-54
2022/09/06 03:19:03;;;;;;;14.10;12.60;;;18.40;1.00;;;;;;4992444;28;20236;-55
2022/09/06 03:21:28;;;;;;;16.33;11.80;;;18.40;1.00;;;;;;4991484;28;20244;-54
2022/09/06 03:23:54;;;;;;;12.80;11.70;;;18.30;1.00;;;;;;4991870;28;20477;-52
2022/09/06 03:26:20;;;;;;;12.77;11.53;;;18.30;1.00;;;;;;4991621;28;20187;-54
2022/09/06 03:28:45;;;;;;;13.70;12.40;;;18.30;1.00;;;;;;4992292;28;20261;-52
2022/09/06 03:31:11;;;;;;;13.67;12.47;;;18.20;1.00;;;;;;4987890;28;20202;-53
2022/09/06 03:33:36;;;;;;;14.10;12.80;;;18.30;1.00;;;;;;4987545;28;20182;-53
2022/09/06 03:36:05;;;;;;;13.60;12.40;;;18.30;1.00;;;;;;4988394;28;20191;-55
2022/09/06 03:38:31;;;;;;;14.23;12.83;;;18.30;1.00;;;;;;4988689;28;20244;-55
2022/09/06 03:40:56;;;;;;;13.37;12.30;;;18.30;1.00;;;;;;4985047;28;20466;-54
2022/09/06 03:43:23;;;;;;;12.70;11.60;;;18.30;1.00;;;;;;4990014;28;20314;-54
2022/09/06 03:45:51;;;;;;;13.63;12.53;;;18.40;1.00;;;;;;4988732;28;20233;-54
2022/09/06 03:48:18;;;;;;;12.73;11.73;;;18.40;1.00;;;;;;4986446;28;20424;-53
2022/09/06 03:50:45;;;;;;;13.43;12.17;;;18.40;1.00;;;;;;4987478;28;20420;-54
2022/09/06 03:53:11;;;;;;;15.37;13.90;;;18.20;1.00;;;;;;4987970;28;20467;-56
2022/09/06 03:55:36;;;;;;;13.97;12.67;;;18.20;1.00;;;;;;4991941;28;20468;-53
2022/09/06 03:58:02;;;;;;;15.43;13.20;;;18.20;1.00;;;;;;4988771;28;20273;-52
2022/09/06 04:00:27;;;;;;;12.83;11.83;;;18.20;1.00;;;;;;4987848;28;20190;-54
2022/09/06 04:02:53;;;;;;;12.97;11.80;;;18.20;1.00;;;;;;4987480;28;20241;-53
2022/09/06 04:05:18;;;;;;;13.77;12.53;;;18.10;1.00;;;;;;4992367;28;20213;-52
2022/09/06 04:07:44;;;;;;;13.37;12.27;;;18.00;1.00;;;;;;4987128;28;20182;-54
2022/09/06 04:10:10;;;;;;;14.60;13.20;;;18.10;1.00;;;;;;4994715;28;20217;-53
2022/09/06 04:12:35;;;;;;;13.10;12.00;;;18.10;1.00;;;;;;4990244;28;20186;-53
2022/09/06 04:15:01;;;;;;;12.93;11.90;;;18.10;1.00;;;;;;4991864;28;20452;-54
2022/09/06 04:17:26;;;;;;;12.83;11.60;;;18.10;1.00;;;;;;4989560;28;20189;-53
2022/09/06 04:19:52;;;;;;;12.80;11.83;;;18.10;1.00;;;;;;4990311;28;20214;-55
2022/09/06 04:22:17;;;;;;;15.60;13.30;;;18.20;1.00;;;;;;4989134;28;20637;-52
2022/09/06 04:24:43;;;;;;;13.20;12.10;;;18.20;1.00;;;;;;4978310;28;20213;-54
2022/09/06 04:27:09;;;;;;;12.93;11.63;;;18.20;1.00;;;;;;4988282;28;20280;-53
2022/09/06 04:29:34;;;;;;;12.90;11.70;;;18.20;1.00;;;;;;4989512;28;20193;-53
2022/09/06 04:32:00;;;;;;;13.37;12.27;;;18.30;1.00;;;;;;4989962;28;20191;-54
2022/09/06 04:34:25;;;;;;;12.70;11.60;;;18.30;1.00;;;;;;4980076;28;20289;-53
2022/09/06 04:36:51;;;;;;;16.80;15.03;;;18.30;1.00;;;;;;4992079;28;20209;-55
2022/09/06 04:39:16;;;;;;;13.77;12.37;;;18.30;1.00;;;;;;4991952;28;20194;-54
2022/09/06 04:41:42;;;;;;;13.67;12.47;;;18.30;1.00;;;;;;4989763;28;20256;-55
2022/09/06 04:44:08;;;;;;;16.13;12.47;;;18.40;1.00;;;;;;4990926;28;20214;-54
2022/09/06 04:46:33;;;;;;;13.00;11.90;;;18.40;1.00;;;;;;4996276;28;20198;-54
2022/09/06 04:49:00;;;;;;;13.27;11.87;;;18.40;1.00;;;;;;4990632;28;20190;-54
2022/09/06 04:51:26;;;;;;;14.10;12.93;;;18.40;1.00;;;;;;5009119;28;20643;-52
2022/09/06 04:53:52;;;;;;;14.20;12.93;;;18.30;1.00;;;;;;4993566;28;20435;-56
2022/09/06 04:56:20;;;;;;;13.60;12.30;;;18.30;1.00;;;;;;4990054;28;20852;-54
2022/09/06 04:58:48;;;;;;;13.57;12.17;;;18.30;1.00;;;;;;4988265;28;20427;-54
2022/09/06 05:01:14;;;;;;;16.60;13.10;;;18.30;1.00;;;;;;4990739;28;20420;-54
2022/09/06 05:03:40;;;;;;;13.00;11.73;;;18.40;1.00;;;;;;4991746;28;20450;-55
2022/09/06 05:06:10;;;;;;;13.53;12.30;;;18.50;1.00;;;;;;4989188;28;20450;-56
2022/09/06 05:08:40;;;;;;;14.50;13.10;;;18.50;1.00;;;;;;4989358;28;20181;-54
2022/09/06 05:11:07;;;;;;;12.93;11.63;;;18.60;1.00;;;;;;4988700;28;20462;-55
2022/09/06 05:13:33;;;;;;;12.63;11.53;;;18.70;1.00;;;;;;4987041;28;20440;-53
2022/09/06 05:16:05;;;;;;;13.27;12.03;;;18.60;1.00;;;;;;4986426;28;20541;-53
2022/09/06 05:18:30;;;;;;;13.93;12.60;;;18.80;1.00;;;;;;4987878;28;21017;-53
2022/09/06 05:20:57;;;;;;;12.73;11.60;;;18.80;1.00;;;;;;4990877;28;20549;-54
2022/09/06 05:23:24;;;;;;;14.10;12.70;;;18.90;1.00;;;;;;4986916;28;20241;-55
2022/09/06 05:25:50;;;;;;;12.53;11.33;;;19.00;1.00;;;;;;4997618;28;20968;-55
2022/09/06 05:28:15;;;;;;;13.43;12.13;;;19.10;1.00;;;;;;4995357;28;20519;-59
2022/09/06 05:30:41;;;;;;;13.60;12.30;;;19.10;1.00;;;;;;5005675;28;20186;-58
2022/09/06 05:33:08;;;;;;;13.53;12.13;;;19.20;1.00;;;;;;4997153;28;20186;-59
2022/09/06 05:35:33;;;;;;;14.30;13.00;;;19.20;1.00;;;;;;5009713;28;20410;-59
2022/09/06 05:37:59;;;;;;;13.17;11.97;;;19.30;1.00;;;;;;5004625;28;20905;-59
2022/09/06 05:40:25;;;;;;;14.87;13.50;;;19.40;1.00;;;;;;4999338;28;20517;-58
2022/09/06 05:42:51;;;;;;;12.90;11.57;;;19.60;1.00;;;;;;4998301;28;20209;-60
2022/09/06 05:45:16;;;;;;;13.93;12.40;;;19.80;1.00;;;;;;5006486;28;20296;-58
2022/09/06 05:47:42;;;;;;;13.40;12.20;;;19.90;1.00;;;;;;4994978;28;20214;-59
2022/09/06 05:50:08;;;;;;;12.80;11.70;;;20.10;1.00;;;;;;5000845;28;20228;-59
2022/09/06 05:52:34;;;;;;;12.97;11.77;;;20.20;1.00;;;;;;5001064;28;20190;-59
2022/09/06 05:55:00;;;;;;;13.47;12.10;;;20.40;1.00;;;;;;4998433;28;20508;-59
2022/09/06 05:57:26;;;;;;;13.57;12.40;;;20.60;1.00;;;;;;4995934;28;20720;-58
2022/09/06 05:59:55;;;;;;;11.67;10.47;;;20.70;1.00;;;;;;4995475;28;20492;-58
2022/09/06 06:02:23;;;;;;;13.63;12.13;;;20.70;1.00;;;;;;5008552;28;20935;-58
2022/09/06 06:04:49;;;;;;;11.87;10.83;;;20.90;1.00;;;;;;4996598;28;20471;-59
2022/09/06 06:07:15;;;;;;;12.27;11.17;;;21.00;1.00;;;;;;5005061;28;20433;-58
2022/09/06 06:09:41;;;;;;;11.73;10.63;;;20.90;1.00;;;;;;4997868;28;20194;-58
2022/09/06 06:12:07;;;;;;;12.50;11.30;;;21.10;1.00;;;;;;4996663;28;20183;-59
2022/09/06 06:14:33;;;;;;;12.20;10.83;;;21.20;1.00;;;;;;5007023;28;20828;-59
2022/09/06 06:16:59;;;;;;;10.27;9.33;;;21.50;1.00;;;;;;5001942;28;20441;-58
2022/09/06 06:19:25;;;;;;;11.27;10.17;;;21.50;1.00;;;;;;5007025;28;20427;-59
2022/09/06 06:21:51;;;;;;;12.63;10.80;;;21.60;1.00;;;;;;4994009;28;20202;-60
2022/09/06 06:24:17;;;;;;;10.83;9.73;;;21.50;1.00;;;;;;5010202;28;20468;-59
2022/09/06 06:26:42;;;;;;;10.67;9.47;;;21.40;1.00;;;;;;5002987;28;20488;-61
2022/09/06 06:29:08;;;;;;;10.67;9.77;;;21.30;1.00;;;;;;5002320;28;20221;-59
2022/09/06 06:31:35;;;;;;;12.13;10.80;;;21.30;1.00;;;;;;4998112;28;20258;-60
2022/09/06 06:34:02;;;;;;;12.83;10.87;;;21.40;1.00;;;;;;4997928;28;20195;-58
2022/09/06 06:36:30;;;;;;;11.27;10.23;;;21.60;1.00;;;;;;4996847;28;20426;-59
2022/09/06 06:38:57;;;;;;;10.37;9.57;;;21.50;1.00;;;;;;5012144;28;20410;-59
2022/09/06 06:41:28;;;;;;;10.00;9.10;;;21.60;1.00;;;;;;5006240;28;20554;-60
2022/09/06 06:43:56;;;;;;;14.03;10.07;;;21.60;1.00;;;;;;4998904;28;20551;-59
2022/09/06 06:46:24;;;;;;;11.80;10.60;;;21.80;1.00;;;;;;5006621;28;20502;-59
2022/09/06 06:48:50;;;;;;;11.83;10.27;;;21.80;1.00;;;;;;4996125;28;20413;-59
2022/09/06 06:51:19;;;;;;;12.43;10.00;;;22.00;1.00;;;;;;5003453;28;21159;-61
2022/09/06 06:53:49;;;;;;;10.00;9.00;;;22.30;1.00;;;;;;5005645;28;20249;-58
2022/09/06 06:56:17;;;;;;;12.37;9.63;;;22.40;1.00;;;;;;5008215;28;20908;-59
2022/09/06 06:58:43;;;;;;;9.83;8.83;;;22.60;1.00;;;;;;5005315;28;20418;-59
2022/09/06 07:01:09;;;;;;;10.17;9.27;;;22.70;1.00;;;;;;5008543;28;20407;-59
2022/09/06 07:03:35;;;;;;;9.53;8.60;;;22.80;1.00;;;;;;5007071;28;20945;-58
2022/09/06 07:06:02;;;;;;;10.30;9.30;;;22.80;1.00;;;;;;5008440;28;20430;-58
2022/09/06 07:08:27;;;;;;;8.43;7.60;;;22.90;1.00;;;;;;5003845;28;20415;-60
2022/09/06 07:10:53;;;;;;;10.00;9.07;;;22.80;1.00;;;;;;5007037;28;20421;-59
2022/09/06 07:13:18;;;;;;;9.30;8.33;;;22.90;1.00;;;;;;5003489;28;20229;-59
2022/09/06 07:15:44;;;;;;;9.03;8.33;;;22.90;1.00;;;;;;5001727;28;20201;-59
2022/09/06 07:18:09;;;;;;;8.70;8.00;;;23.10;1.00;;;;;;5005040;28;20278;-59
2022/09/06 07:20:35;;;;;;;10.80;9.30;;;22.90;1.00;;;;;;5004687;28;20284;-60
2022/09/06 07:23:04;;;;;;;9.20;8.30;;;23.10;1.00;;;;;;4998887;28;20197;-59
2022/09/06 07:25:30;;;;;;;8.30;7.60;;;23.00;1.00;;;;;;5000141;28;20217;-59
2022/09/06 07:28:07;;;;;;;9.13;7.93;;;23.10;1.00;;;;;;4999784;28;20472;-60
2022/09/06 07:30:36;;;;;;;8.40;7.73;;;23.00;1.00;;;;;;5003117;28;20439;-59
2022/09/06 07:33:04;;;;;;;8.90;8.20;;;22.90;1.00;;;;;;5003985;28;20499;-60
2022/09/06 07:35:30;;;;;;;8.77;7.93;;;22.90;1.00;;;;;;5004300;28;20498;-60
2022/09/06 07:37:56;;;;;;;8.43;7.60;;;22.80;1.00;;;;;;5007469;28;20449;-59
2022/09/06 07:40:23;;;;;;;9.27;8.47;;;22.90;1.00;;;;;;5004732;28;20445;-60
2022/09/06 07:42:49;;;;;;;8.37;7.67;;;22.90;1.00;;;;;;5000550;28;20415;-59
2022/09/06 07:45:15;;;;;;;8.53;7.73;;;23.00;1.00;;;;;;5002448;28;20440;-59
2022/09/06 07:47:41;;;;;;;8.70;8.00;;;22.90;1.00;;;;;;5013003;28;20191;-59
2022/09/06 07:50:07;;;;;;;8.37;7.67;;;22.90;1.00;;;;;;4995827;28;20510;-59
2022/09/06 07:52:33;;;;;;;8.60;7.90;;;22.90;1.00;;;;;;5002990;28;20552;-59
2022/09/06 07:54:58;;;;;;;9.77;8.87;;;22.90;1.00;;;;;;5004349;28;20196;-59
2022/09/06 07:57:24;;;;;;;8.00;7.30;;;22.80;1.00;;;;;;5007430;28;20652;-60
2022/09/06 07:59:50;;;;;;;8.07;7.47;;;22.70;1.00;;;;;;4999481;28;20253;-59
2022/09/06 08:02:16;;;;;;;8.93;8.23;;;22.70;1.00;;;;;;4993926;28;20564;-60
2022/09/06 08:04:42;;;;;;;8.47;7.77;;;22.70;1.00;;;;;;4996012;28;20535;-59
2022/09/06 08:07:08;;;;;;;8.60;7.90;;;22.70;1.00;;;;;;5003085;28;20446;-59
2022/09/06 08:09:34;;;;;;;9.50;7.17;;;22.80;1.00;;;;;;5009018;28;20511;-59
2022/09/06 08:12:05;;;;;;;8.87;7.73;;;22.90;1.00;;;;;;4996388;28;20669;-59
2022/09/06 08:14:31;;;;;;;8.30;7.60;;;22.90;1.00;;;;;;5002935;28;20440;-60
2022/09/06 08:16:57;;;;;;;11.53;8.50;;;23.10;1.00;;;;;;4997231;28;20432;-59
2022/09/06 08:19:23;;;;;;;8.30;7.50;;;23.30;1.00;;;;;;4995835;28;20446;-60
2022/09/06 08:21:48;;;;;;;9.13;8.20;;;23.40;1.00;;;;;;4990282;28;20517;-59
2022/09/06 08:24:14;;;;;;;7.47;6.87;;;23.40;1.00;;;;;;5004890;28;20236;-60
2022/09/06 08:26:41;;;;;;;7.80;7.17;;;23.60;1.00;;;;;;5005125;28;20272;-60
2022/09/06 08:29:08;;;;;;;8.33;7.57;;;23.70;1.00;;;;;;5006438;28;20424;-59
2022/09/06 08:31:36;;;;;;;8.43;7.63;;;23.90;1.00;;;;;;5003879;28;20478;-59
2022/09/06 08:34:02;;;;;;;8.73;7.53;;;24.10;1.00;;;;;;5006536;28;20543;-60
2022/09/06 08:36:29;;;;;;;8.20;7.43;;;24.30;1.00;;;;;;4995847;28;20528;-60
2022/09/06 08:38:58;;;;;;;8.00;7.40;;;24.50;1.00;;;;;;4992098;28;20679;-61
2022/09/06 08:41:53;;;;;;;7.97;7.27;;;24.50;1.00;;;;;;4988929;28;20487;-60
2022/09/06 08:44:23;;;;;;;8.60;7.70;;;24.80;1.00;;;;;;4990067;28;21058;-61
2022/09/06 08:46:59;;;;;;;10.10;7.33;;;25.00;1.00;;;;;;4991484;28;20978;-59
2022/09/06 08:49:28;;;;;;;10.40;7.80;;;25.00;1.00;;;;;;4989894;28;20445;-60
2022/09/06 08:52:14;;;;;;;8.47;7.30;;;25.20;1.00;;;;;;4991861;28;20786;-60
2022/09/06 08:54:50;;;;;;;8.13;7.43;;;25.30;1.00;;;;;;4990417;28;20431;-61
2022/09/06 08:57:34;;;;;;;7.60;7.03;;;25.60;1.00;;;;;;4991826;28;20408;-61
2022/09/06 09:00:07;;;;;;;7.73;7.00;;;25.70;1.00;;;;;;4991021;28;20444;-61
2022/09/06 09:03:15;;;;;;;7.97;7.00;;;25.90;1.00;;;;;;4989666;28;20432;-60
2022/09/06 09:05:42;;;;;;;7.63;6.97;;;26.00;1.00;;;;;;4964621;28;20549;-61
2022/09/06 09:08:27;;;;;;;7.30;6.80;;;26.10;1.00;;;;;;4994274;28;20425;-61
2022/09/06 09:11:15;;;;;;;7.43;6.83;;;26.20;1.00;;;;;;4999525;28;20458;-60
2022/09/06 09:13:52;;;;;;;8.03;7.10;;;26.20;1.00;;;;;;4993236;28;20465;-59
2022/09/06 09:16:18;;;;;;;8.00;7.30;;;26.20;1.00;;;;;;4991611;28;20455;-61
2022/09/06 09:18:49;;;;;;;9.43;7.30;;;26.20;1.00;;;;;;4990937;28;20809;-61
2022/09/06 09:21:19;;;;;;;7.93;7.23;;;26.00;1.00;;;;;;4990618;28;20450;-61
2022/09/06 09:23:52;;;;;;;8.33;7.73;;;25.70;1.00;;;;;;4986423;28;20833;-62
2022/09/06 09:26:19;;;;;;;9.27;8.37;;;25.90;1.00;;;;;;4994369;28;20516;-59
2022/09/06 09:29:19;;;;;;;7.60;7.00;;;26.10;1.00;;;;;;4990379;28;20829;-60
2022/09/06 09:31:48;;;;;;;8.00;7.30;;;26.40;1.00;;;;;;4998645;28;20442;-60
2022/09/06 09:34:32;;;;;;;8.00;7.40;;;26.40;1.00;;;;;;5009735;28;20913;-61
2022/09/06 09:37:19;;;;;;;9.53;6.93;;;26.10;1.00;;;;;;4990412;28;20457;-60
2022/09/06 09:39:47;;;;;;;7.70;7.00;;;26.00;1.00;;;;;;4989972;28;20464;-61
2022/09/06 09:42:23;;;;;;;8.00;7.20;;;25.80;1.00;;;;;;4991094;28;20441;-62
2022/09/06 09:44:49;;;;;;;7.80;7.00;;;25.90;1.00;;;;;;4988833;28;20474;-61
2022/09/06 09:47:27;;;;;;;8.70;7.67;;;25.90;1.00;;;;;;4990449;28;20593;-60
2022/09/06 09:49:53;;;;;;;7.67;7.00;;;25.80;1.00;;;;;;4988793;28;20606;-61
2022/09/06 09:52:28;;;;;;;8.13;7.43;;;25.80;1.00;;;;;;4973547;28;20453;-61
2022/09/06 09:55:05;;;;;;;8.43;7.53;;;25.60;1.00;;;;;;4988901;28;20431;-60
2022/09/06 09:57:44;;;;;;;7.93;7.13;;;25.80;1.00;;;;;;4992334;28;20443;-61
2022/09/06 10:00:13;;;;;;;7.93;7.10;;;26.00;1.00;;;;;;4992178;28;20416;-60
2022/09/06 10:02:41;;;;;;;11.10;6.70;;;26.30;1.00;;;;;;4997419;28;20484;-61
2022/09/06 10:05:14;;;;;;;8.37;7.67;;;26.40;1.00;;;;;;4998874;28;20820;-60
2022/09/06 10:07:52;;;;;;;9.80;7.30;;;26.50;1.00;;;;;;4994221;28;20485;-62
2022/09/06 10:10:27;;;;;;;7.93;7.33;;;26.70;1.00;;;;;;4994352;28;20859;-59
2022/09/06 10:13:23;;;;;;;8.07;6.77;;;26.90;1.00;;;;;;4993950;28;20439;-61
2022/09/06 10:15:51;;;;;;;7.93;7.30;;;26.80;1.00;;;;;;4993016;28;20426;-61
2022/09/06 10:18:57;;;;;;;7.70;7.00;;;26.80;1.00;;;;;;4993947;28;20442;-60
2022/09/06 10:21:24;;;;;;;7.70;7.07;;;26.60;1.00;;;;;;4972011;28;20931;-61
2022/09/06 10:24:17;;;;;;;9.10;8.30;;;26.70;1.00;;;;;;4990173;28;20543;-60
2022/09/06 10:26:48;;;;;;;8.73;8.00;;;26.50;1.00;;;;;;4992966;28;21205;-60
2022/09/06 10:29:23;;;;;;;7.60;7.00;;;26.70;1.00;;;;;;4993001;28;20968;-61
2022/09/06 10:32:14;;;;;;;8.23;7.20;;;26.80;1.00;;;;;;4992716;28;20445;-61
2022/09/06 10:35:04;;;;;;;8.30;7.37;;;26.80;1.00;;;;;;4975940;28;20429;-61
2022/09/06 10:37:33;;;;;;;8.70;7.70;;;26.70;1.00;;;;;;4992505;28;20418;-60
2022/09/06 10:40:09;;;;;;;7.40;6.80;;;26.80;1.00;;;;;;4991804;28;20443;-61
2022/09/06 10:42:53;;;;;;;7.63;6.80;;;26.80;1.00;;;;;;4991965;28;20481;-61
2022/09/06 10:45:21;;;;;;;7.80;7.13;;;26.80;1.00;;;;;;4992773;28;20466;-61
2022/09/06 10:48:01;;;;;;;8.67;7.47;;;26.90;1.00;;;;;;4992396;28;20450;-62
2022/09/06 10:50:58;;;;;;;7.63;6.93;;;27.10;1.00;;;;;;4995187;28;20960;-60
2022/09/06 10:53:46;;;;;;;7.20;6.53;;;27.00;1.00;;;;;;4986217;28;20421;-60
2022/09/06 10:56:19;;;;;;;7.27;6.60;;;26.90;1.00;;;;;;4992975;28;20524;-63
2022/09/06 10:58:57;;;;;;;7.70;7.00;;;26.70;1.00;;;;;;4993228;28;20444;-60
2022/09/06 11:01:49;;;;;;;8.20;7.50;;;26.70;1.00;;;;;;4993849;28;20481;-61
2022/09/06 11:04:26;;;;;;;7.70;7.10;;;26.90;1.00;;;;;;4991565;28;20490;-61
2022/09/06 11:06:58;;;;;;;7.27;6.57;;;27.00;1.00;;;;;;4987654;28;20480;-61
2022/09/06 11:09:42;;;;;;;8.23;7.37;;;27.10;1.00;;;;;;4987938;28;20430;-60
2022/09/06 11:12:33;;;;;;;7.17;6.57;;;27.10;1.00;;;;;;4990672;28;20538;-61
2022/09/06 11:15:03;;;;;;;7.03;6.53;;;27.40;1.00;;;;;;4974989;28;20441;-61
2022/09/06 11:17:59;;;;;;;7.40;6.83;;;27.30;1.00;;;;;;4992575;28;20459;-61
2022/09/06 11:20:33;;;;;;;6.67;6.17;;;27.50;1.00;;;;;;4991327;28;20456;-60
2022/09/06 11:23:04;;;;;;;7.30;6.50;;;27.50;1.00;;;;;;4994364;28;20479;-61
2022/09/06 11:25:57;;;;;;;6.97;6.37;;;27.40;1.00;;;;;;4993000;28;20507;-59
2022/09/06 11:28:37;;;;;;;7.23;6.53;;;27.20;1.00;;;;;;4992100;28;20931;-61
2022/09/06 11:31:10;;;;;;;7.10;6.60;;;27.40;1.00;;;;;;4993301;28;20926;-62
2022/09/06 11:33:38;;;;;;;8.30;7.60;;;27.40;1.00;;;;;;4992915;28;20442;-61
2022/09/06 11:36:46;;;;;;;7.53;6.80;;;27.70;1.00;;;;;;4992881;28;20434;-62
2022/09/06 11:39:13;;;;;;;7.83;7.10;;;27.80;1.00;;;;;;4986065;28;20421;-62
2022/09/06 11:41:40;;;;;;;8.27;6.70;;;28.00;1.00;;;;;;4993713;28;21414;-62
2022/09/06 11:44:09;;;;;;;7.37;6.83;;;28.00;1.00;;;;;;4995278;28;20490;-61
2022/09/06 11:46:34;;;;;;;7.40;6.80;;;28.00;1.00;;;;;;4991731;28;20417;-60
2022/09/06 11:49:28;;;;;;;7.43;6.73;;;27.70;1.00;;;;;;4986466;28;21075;-60
2022/09/06 11:51:54;;;;;;;7.00;6.30;;;27.70;1.00;;;;;;4971881;28;20736;-61
2022/09/06 11:54:26;;;;;;;7.17;6.53;;;27.70;1.00;;;;;;4987888;28;20460;-61
2022/09/06 11:57:00;;;;;;;12.00;8.80;;;27.60;1.00;;;;;;4992742;28;20426;-60
2022/09/06 11:59:35;;;;;;;7.13;6.53;;;27.30;1.00;;;;;;4991454;28;20433;-60
2022/09/06 12:02:04;;;;;;;7.17;6.57;;;27.40;1.00;;;;;;4988348;28;20512;-60
2022/09/06 12:04:58;;;;;;;7.50;6.73;;;27.60;1.00;;;;;;4989344;28;20473;-61
2022/09/06 12:07:24;;;;;;;6.90;6.30;;;27.90;1.00;;;;;;4985742;28;20459;-62
2022/09/06 12:09:50;;;;;;;9.40;7.33;;;28.20;1.00;;;;;;4992566;28;20476;-61
2022/09/06 12:12:39;;;;;;;7.83;7.23;;;28.50;1.00;;;;;;4992321;28;20471;-61
2022/09/06 12:15:43;;;;;;;7.10;6.40;;;29.00;1.00;;;;;;4974382;28;20412;-62
2022/09/06 12:18:47;;;;;;;7.23;6.73;;;28.90;1.00;;;;;;4977240;28;21199;-61
2022/09/06 12:21:46;;;;;;;8.33;7.63;;;29.10;1.00;;;;;;4991476;28;20442;-62
2022/09/06 12:24:43;;;;;;;6.97;6.47;;;29.50;1.00;;;;;;4972245;28;20574;-61
2022/09/06 12:27:15;;;;;;;7.20;6.70;;;29.50;1.00;;;;;;4907329;28;20479;-61
2022/09/06 12:30:08;;;;;;;6.70;6.10;;;29.10;1.00;;;;;;4992428;28;20490;-62
2022/09/06 12:32:40;;;;;;;7.00;6.37;;;29.00;1.00;;;;;;4988185;28;20470;-60
2022/09/06 12:35:13;;;;;;;10.70;7.03;;;29.10;1.00;;;;;;4992053;28;20440;-59
2022/09/06 12:37:58;;;;;;;7.30;6.80;;;29.30;1.00;;;;;;4992020;28;20417;-61
2022/09/06 12:40:26;;;;;;;7.80;6.47;;;29.50;1.00;;;;;;4991750;28;20427;-61
2022/09/06 12:42:52;;;;;;;7.57;6.40;;;29.70;1.00;;;;;;5009779;28;20432;-60
2022/09/06 12:45:20;;;;;;;7.53;6.83;;;29.60;1.00;;;;;;5003073;28;20442;-62
2022/09/06 12:47:47;;;;;;;6.90;6.30;;;29.50;1.00;;;;;;4991908;28;20410;-62
2022/09/06 12:50:19;;;;;;;8.50;6.70;;;29.20;1.00;;;;;;4990647;28;20525;-61
2022/09/06 12:52:53;;;;;;;8.30;6.37;;;29.00;1.00;;;;;;4991741;28;20439;-60
2022/09/06 12:55:27;;;;;;;6.80;6.20;;;28.90;1.00;;;;;;4991144;28;20486;-61
2022/09/06 12:57:55;;;;;;;6.80;6.30;;;29.00;1.00;;;;;;4991909;28;20440;-61
2022/09/06 13:00:22;;;;;;;6.67;6.17;;;29.00;1.00;;;;;;4991636;28;20431;-60
2022/09/06 13:03:13;;;;;;;6.63;6.13;;;28.80;1.00;;;;;;4996672;28;20909;-61
2022/09/06 13:05:40;;;;;;;7.53;6.90;;;28.60;1.00;;;;;;5010692;28;20469;-61